sensor_id;sensor_type;location;lat;lon;timestamp;pressure;altitude;pressure_sealevel;temperature;humidity
71907;BME280;59781;52.090;5.030;2023-02-22T00:01:23;101513.41;;;6.02;100.00
71907;BME280;59781;52.090;5.030;2023-02-22T00:04:11;101518.16;;;6.10;100.00
71907;BME280;59781;52.090;5.030;2023-02-22T00:06:38;101520.69;;;6.11;100.00
71907;BME280;59781;52.090;5.030;2023-02-22T00:09:04;101518.59;;;6.15;100.00
71907;BME280;59781;52.090;5.030;2023-02-22T00:11:33;101518.50;;;6.05;100.00
71907;BME280;59781;52.090;5.030;2023-02-22T00:13:59;101514.50;;;6.11;100.00
71907;BME280;59781;52.090;5.030;2023-02-22T00:16:26;101514.31;;;6.23;100.00
71907;BME280;59781;52.090;5.030;2023-02-22T00:18:52;101516.16;;;6.23;100.00
71907;BME280;59781;52.090;5.030;2023-02-22T00:21:20;101512.19;;;6.06;100.00
71907;BME280;59781;52.090;5.030;2023-02-22T00:23:47;101516.06;;;5.80;100.00
71907;BME280;59781;52.090;5.030;2023-02-22T00:26:19;101508.69;;;5.72;100.00
71907;BME280;59781;52.090;5.030;2023-02-22T00:28:50;101512.81;;;5.76;100.00
71907;BME280;59781;52.090;5.030;2023-02-22T00:31:17;101503.22;;;5.85;100.00
71907;BME280;59781;52.090;5.030;2023-02-22T00:33:44;101504.22;;;5.72;100.00
71907;BME280;59781;52.090;5.030;2023-02-22T00:36:12;101504.16;;;6.06;100.00
71907;BME280;59781;52.090;5.030;2023-02-22T00:38:40;101493.59;;;6.04;100.00
71907;BME280;59781;52.090;5.030;2023-02-22T00:41:07;101492.94;;;6.23;100.00
71907;BME280;59781;52.090;5.030;2023-02-22T00:43:34;101484.38;;;5.97;100.00
71907;BME280;59781;52.090;5.030;2023-02-22T00:46:00;101481.34;;;6.02;100.00
71907;BME280;59781;52.090;5.030;2023-02-22T00:48:25;101483.72;;;6.16;100.00
71907;BME280;59781;52.090;5.030;2023-02-22T00:50:51;101477.28;;;6.08;100.00
71907;BME280;59781;52.090;5.030;2023-02-22T00:53:21;101478.75;;;6.44;100.00
71907;BME280;59781;52.090;5.030;2023-02-22T00:55:48;101477.00;;;6.54;100.00
71907;BME280;59781;52.090;5.030;2023-02-22T00:58:14;101469.31;;;6.28;100.00
71907;BME280;59781;52.090;5.030;2023-02-22T01:00:41;101477.09;;;6.31;100.00
71907;BME280;59781;52.090;5.030;2023-02-22T01:03:10;101475.63;;;5.95;100.00
71907;BME280;59781;52.090;5.030;2023-02-22T01:05:37;101483.28;;;6.00;100.00
71907;BME280;59781;52.090;5.030;2023-02-22T01:08:05;101478.78;;;5.78;100.00
71907;BME280;59781;52.090;5.030;2023-02-22T01:10:34;101478.13;;;6.08;100.00
71907;BME280;59781;52.090;5.030;2023-02-22T01:13:01;101480.72;;;5.98;100.00
71907;BME280;59781;52.090;5.030;2023-02-22T01:15:34;101482.63;;;6.08;100.00
71907;BME280;59781;52.090;5.030;2023-02-22T01:18:02;101469.59;;;5.71;100.00
71907;BME280;59781;52.090;5.030;2023-02-22T01:20:29;101478.69;;;5.68;100.00
71907;BME280;59781;52.090;5.030;2023-02-22T01:22:58;101473.47;;;5.67;100.00
71907;BME280;59781;52.090;5.030;2023-02-22T01:25:28;101472.25;;;5.71;100.00
71907;BME280;59781;52.090;5.030;2023-02-22T01:27:56;101470.22;;;5.63;100.00
71907;BME280;59781;52.090;5.030;2023-02-22T01:30:28;101477.63;;;5.71;100.00
71907;BME280;59781;52.090;5.030;2023-02-22T01:32:57;101476.47;;;5.85;100.00
71907;BME280;59781;52.090;5.030;2023-02-22T01:35:28;101474.19;;;5.80;100.00
71907;BME280;59781;52.090;5.030;2023-02-22T01:37:56;101466.91;;;5.60;100.00
71907;BME280;59781;52.090;5.030;2023-02-22T01:40:27;101457.31;;;5.57;100.00
71907;BME280;59781;52.090;5.030;2023-02-22T01:42:57;101455.25;;;5.72;100.00
71907;BME280;59781;52.090;5.030;2023-02-22T01:48:13;101449.94;;;5.61;100.00
71907;BME280;59781;52.090;5.030;2023-02-22T01:50:53;101449.38;;;5.78;100.00
71907;BME280;59781;52.090;5.030;2023-02-22T01:53:26;101448.94;;;5.73;100.00
71907;BME280;59781;52.090;5.030;2023-02-22T01:55:59;101446.16;;;5.63;100.00
71907;BME280;59781;52.090;5.030;2023-02-22T01:58:30;101437.31;;;5.52;100.00
71907;BME280;59781;52.090;5.030;2023-02-22T02:00:59;101435.81;;;5.59;100.00
71907;BME280;59781;52.090;5.030;2023-02-22T02:03:29;101435.88;;;5.36;100.00
71907;BME280;59781;52.090;5.030;2023-02-22T02:06:03;101425.75;;;5.62;100.00
71907;BME280;59781;52.090;5.030;2023-02-22T02:08:44;101419.44;;;5.63;100.00
71907;BME280;59781;52.090;5.030;2023-02-22T02:11:19;101427.41;;;5.74;100.00
71907;BME280;59781;52.090;5.030;2023-02-22T02:13:50;101420.44;;;5.40;100.00
71907;BME280;59781;52.090;5.030;2023-02-22T02:16:30;101421.28;;;5.40;100.00
71907;BME280;59781;52.090;5.030;2023-02-22T02:19:09;101412.31;;;5.41;100.00
71907;BME280;59781;52.090;5.030;2023-02-22T02:31:48;101407.81;;;5.53;100.00
71907;BME280;59781;52.090;5.030;2023-02-22T02:34:28;101411.25;;;5.22;100.00
71907;BME280;59781;52.090;5.030;2023-02-22T02:42:40;101397.16;;;5.08;100.00
71907;BME280;59781;52.090;5.030;2023-02-22T02:45:22;101393.88;;;5.27;100.00
71907;BME280;59781;52.090;5.030;2023-02-22T02:47:58;101392.03;;;5.28;100.00
71907;BME280;59781;52.090;5.030;2023-02-22T02:50:36;101391.78;;;5.31;100.00
71907;BME280;59781;52.090;5.030;2023-02-22T02:53:09;101391.59;;;5.23;100.00
71907;BME280;59781;52.090;5.030;2023-02-22T02:55:37;101387.91;;;5.46;100.00
71907;BME280;59781;52.090;5.030;2023-02-22T02:58:06;101383.47;;;5.13;100.00
71907;BME280;59781;52.090;5.030;2023-02-22T03:00:38;101386.25;;;4.89;100.00
71907;BME280;59781;52.090;5.030;2023-02-22T03:06:16;101387.22;;;4.77;100.00
71907;BME280;59781;52.090;5.030;2023-02-22T03:09:00;101375.22;;;4.82;100.00
71907;BME280;59781;52.090;5.030;2023-02-22T03:11:44;101374.59;;;4.90;100.00
71907;BME280;59781;52.090;5.030;2023-02-22T03:14:41;101365.50;;;4.81;100.00
71907;BME280;59781;52.090;5.030;2023-02-22T03:17:22;101367.81;;;4.97;100.00
71907;BME280;59781;52.090;5.030;2023-02-22T03:20:18;101365.28;;;4.84;100.00
71907;BME280;59781;52.090;5.030;2023-02-22T03:23:04;101356.03;;;4.88;100.00
71907;BME280;59781;52.090;5.030;2023-02-22T03:25:42;101361.25;;;4.90;100.00
71907;BME280;59781;52.090;5.030;2023-02-22T03:28:20;101354.69;;;5.05;100.00
71907;BME280;59781;52.090;5.030;2023-02-22T03:34:07;101349.13;;;4.97;100.00
71907;BME280;59781;52.090;5.030;2023-02-22T03:36:49;101351.41;;;4.90;100.00
71907;BME280;59781;52.090;5.030;2023-02-22T03:39:24;101353.50;;;4.87;100.00
71907;BME280;59781;52.090;5.030;2023-02-22T03:42:05;101356.88;;;4.89;100.00
71907;BME280;59781;52.090;5.030;2023-02-22T03:44:38;101345.50;;;4.76;100.00
71907;BME280;59781;52.090;5.030;2023-02-22T03:47:11;101342.97;;;4.63;100.00
71907;BME280;59781;52.090;5.030;2023-02-22T03:49:51;101335.16;;;4.38;100.00
71907;BME280;59781;52.090;5.030;2023-02-22T03:52:22;101333.59;;;4.46;100.00
71907;BME280;59781;52.090;5.030;2023-02-22T03:54:50;101333.22;;;4.62;100.00
71907;BME280;59781;52.090;5.030;2023-02-22T03:57:34;101334.69;;;4.77;100.00
71907;BME280;59781;52.090;5.030;2023-02-22T04:00:18;101322.53;;;4.17;100.00
71907;BME280;59781;52.090;5.030;2023-02-22T04:02:50;101324.50;;;4.49;100.00
71907;BME280;59781;52.090;5.030;2023-02-22T04:05:18;101316.25;;;4.41;100.00
71907;BME280;59781;52.090;5.030;2023-02-22T04:07:44;101322.22;;;4.44;100.00
71907;BME280;59781;52.090;5.030;2023-02-22T04:10:15;101312.75;;;4.63;100.00
71907;BME280;59781;52.090;5.030;2023-02-22T04:12:42;101309.72;;;4.45;100.00
71907;BME280;59781;52.090;5.030;2023-02-22T04:15:11;101304.84;;;4.50;100.00
71907;BME280;59781;52.090;5.030;2023-02-22T04:17:41;101309.59;;;4.57;100.00
71907;BME280;59781;52.090;5.030;2023-02-22T04:20:11;101297.94;;;4.58;100.00
71907;BME280;59781;52.090;5.030;2023-02-22T04:22:46;101292.28;;;4.63;100.00
71907;BME280;59781;52.090;5.030;2023-02-22T04:25:13;101292.75;;;4.68;100.00
71907;BME280;59781;52.090;5.030;2023-02-22T04:27:39;101293.97;;;4.53;100.00
71907;BME280;59781;52.090;5.030;2023-02-22T04:30:05;101286.91;;;4.41;100.00
71907;BME280;59781;52.090;5.030;2023-02-22T04:32:32;101288.84;;;4.61;100.00
71907;BME280;59781;52.090;5.030;2023-02-22T04:34:58;101289.31;;;4.32;100.00
71907;BME280;59781;52.090;5.030;2023-02-22T04:37:25;101294.69;;;4.44;100.00
71907;BME280;59781;52.090;5.030;2023-02-22T04:39:51;101284.47;;;4.71;100.00
71907;BME280;59781;52.090;5.030;2023-02-22T04:42:17;101286.03;;;4.96;100.00
71907;BME280;59781;52.090;5.030;2023-02-22T04:44:44;101285.00;;;4.43;100.00
71907;BME280;59781;52.090;5.030;2023-02-22T04:47:09;101282.94;;;4.35;100.00
71907;BME280;59781;52.090;5.030;2023-02-22T04:49:35;101287.28;;;4.47;100.00
71907;BME280;59781;52.090;5.030;2023-02-22T04:52:01;101282.06;;;4.57;100.00
71907;BME280;59781;52.090;5.030;2023-02-22T04:54:33;101277.84;;;4.54;100.00
71907;BME280;59781;52.090;5.030;2023-02-22T04:56:59;101274.19;;;4.55;100.00
71907;BME280;59781;52.090;5.030;2023-02-22T04:59:25;101275.41;;;4.40;100.00
71907;BME280;59781;52.090;5.030;2023-02-22T05:01:54;101274.44;;;4.64;100.00
71907;BME280;59781;52.090;5.030;2023-02-22T05:04:20;101270.69;;;4.55;100.00
71907;BME280;59781;52.090;5.030;2023-02-22T05:06:46;101266.94;;;4.46;100.00
71907;BME280;59781;52.090;5.030;2023-02-22T05:09:12;101269.22;;;4.73;100.00
71907;BME280;59781;52.090;5.030;2023-02-22T05:11:38;101263.75;;;4.41;100.00
71907;BME280;59781;52.090;5.030;2023-02-22T05:14:04;101252.00;;;4.32;100.00
71907;BME280;59781;52.090;5.030;2023-02-22T05:16:30;101261.94;;;4.19;100.00
71907;BME280;59781;52.090;5.030;2023-02-22T05:18:56;101262.78;;;4.20;100.00
71907;BME280;59781;52.090;5.030;2023-02-22T05:21:21;101258.81;;;4.25;100.00
71907;BME280;59781;52.090;5.030;2023-02-22T05:23:48;101250.78;;;4.59;100.00
71907;BME280;59781;52.090;5.030;2023-02-22T05:26:14;101252.97;;;4.31;100.00
71907;BME280;59781;52.090;5.030;2023-02-22T05:28:39;101254.19;;;4.50;100.00
71907;BME280;59781;52.090;5.030;2023-02-22T05:31:05;101248.63;;;4.64;100.00
71907;BME280;59781;52.090;5.030;2023-02-22T05:33:33;101261.59;;;4.46;100.00
71907;BME280;59781;52.090;5.030;2023-02-22T05:35:59;101257.69;;;4.39;100.00
71907;BME280;59781;52.090;5.030;2023-02-22T05:38:25;101255.88;;;4.62;100.00
71907;BME280;59781;52.090;5.030;2023-02-22T05:40:51;101257.22;;;4.45;100.00
71907;BME280;59781;52.090;5.030;2023-02-22T05:43:16;101261.81;;;4.32;100.00
71907;BME280;59781;52.090;5.030;2023-02-22T05:45:42;101254.91;;;4.29;100.00
71907;BME280;59781;52.090;5.030;2023-02-22T05:48:08;101248.97;;;4.37;100.00
71907;BME280;59781;52.090;5.030;2023-02-22T05:50:34;101243.88;;;4.56;100.00
71907;BME280;59781;52.090;5.030;2023-02-22T05:52:59;101245.22;;;4.28;100.00
71907;BME280;59781;52.090;5.030;2023-02-22T05:55:25;101241.31;;;4.21;100.00
71907;BME280;59781;52.090;5.030;2023-02-22T05:57:51;101239.28;;;4.36;100.00
71907;BME280;59781;52.090;5.030;2023-02-22T06:00:26;101236.38;;;4.28;100.00
71907;BME280;59781;52.090;5.030;2023-02-22T06:03:02;101229.47;;;4.48;100.00
71907;BME280;59781;52.090;5.030;2023-02-22T06:05:30;101233.09;;;4.36;100.00
71907;BME280;59781;52.090;5.030;2023-02-22T06:07:57;101240.00;;;4.27;100.00
71907;BME280;59781;52.090;5.030;2023-02-22T06:10:24;101231.88;;;4.28;100.00
71907;BME280;59781;52.090;5.030;2023-02-22T06:12:51;101237.22;;;4.40;100.00
71907;BME280;59781;52.090;5.030;2023-02-22T06:15:19;101246.66;;;4.21;100.00
71907;BME280;59781;52.090;5.030;2023-02-22T06:17:47;101232.59;;;4.30;100.00
71907;BME280;59781;52.090;5.030;2023-02-22T06:20:17;101227.41;;;4.18;100.00
71907;BME280;59781;52.090;5.030;2023-02-22T06:22:49;101219.16;;;4.32;100.00
71907;BME280;59781;52.090;5.030;2023-02-22T06:25:23;101222.31;;;4.26;100.00
71907;BME280;59781;52.090;5.030;2023-02-22T06:27:51;101215.41;;;4.35;100.00
71907;BME280;59781;52.090;5.030;2023-02-22T06:30:21;101223.78;;;4.52;100.00
71907;BME280;59781;52.090;5.030;2023-02-22T06:32:48;101216.00;;;4.38;100.00
71907;BME280;59781;52.090;5.030;2023-02-22T06:35:15;101214.06;;;4.18;100.00
71907;BME280;59781;52.090;5.030;2023-02-22T06:37:41;101216.16;;;4.14;100.00
71907;BME280;59781;52.090;5.030;2023-02-22T06:40:07;101210.31;;;4.31;100.00
71907;BME280;59781;52.090;5.030;2023-02-22T06:42:36;101210.69;;;4.27;100.00
71907;BME280;59781;52.090;5.030;2023-02-22T06:45:02;101208.00;;;4.49;100.00
71907;BME280;59781;52.090;5.030;2023-02-22T06:47:28;101214.44;;;4.47;100.00
71907;BME280;59781;52.090;5.030;2023-02-22T06:49:56;101223.53;;;4.33;100.00
71907;BME280;59781;52.090;5.030;2023-02-22T06:52:23;101214.81;;;4.53;100.00
71907;BME280;59781;52.090;5.030;2023-02-22T06:54:50;101208.50;;;4.32;100.00
71907;BME280;59781;52.090;5.030;2023-02-22T06:57:16;101209.00;;;4.26;100.00
71907;BME280;59781;52.090;5.030;2023-02-22T06:59:42;101208.84;;;4.39;100.00
71907;BME280;59781;52.090;5.030;2023-02-22T07:02:11;101202.81;;;4.37;100.00
71907;BME280;59781;52.090;5.030;2023-02-22T07:04:38;101196.50;;;4.26;100.00
71907;BME280;59781;52.090;5.030;2023-02-22T07:07:04;101202.66;;;4.49;100.00
71907;BME280;59781;52.090;5.030;2023-02-22T07:09:30;101214.44;;;4.47;100.00
71907;BME280;59781;52.090;5.030;2023-02-22T07:11:56;101212.38;;;4.39;100.00
71907;BME280;59781;52.090;5.030;2023-02-22T07:14:22;101214.06;;;4.29;100.00
71907;BME280;59781;52.090;5.030;2023-02-22T07:16:47;101217.97;;;4.36;100.00
71907;BME280;59781;52.090;5.030;2023-02-22T07:19:13;101210.44;;;4.30;100.00
71907;BME280;59781;52.090;5.030;2023-02-22T07:21:39;101218.94;;;4.35;100.00
71907;BME280;59781;52.090;5.030;2023-02-22T07:24:05;101224.13;;;4.59;100.00
71907;BME280;59781;52.090;5.030;2023-02-22T07:26:38;101227.63;;;4.48;100.00
71907;BME280;59781;52.090;5.030;2023-02-22T07:29:05;101226.06;;;4.57;100.00
71907;BME280;59781;52.090;5.030;2023-02-22T07:31:38;101222.50;;;4.79;100.00
71907;BME280;59781;52.090;5.030;2023-02-22T07:34:04;101220.72;;;4.68;100.00
71907;BME280;59781;52.090;5.030;2023-02-22T07:36:29;101226.53;;;4.73;100.00
71907;BME280;59781;52.090;5.030;2023-02-22T07:38:55;101225.09;;;4.47;100.00
71907;BME280;59781;52.090;5.030;2023-02-22T07:41:21;101225.09;;;4.58;100.00
71907;BME280;59781;52.090;5.030;2023-02-22T07:43:47;101238.66;;;4.66;100.00
71907;BME280;59781;52.090;5.030;2023-02-22T07:46:13;101238.81;;;4.53;100.00
71907;BME280;59781;52.090;5.030;2023-02-22T07:48:39;101241.69;;;4.73;100.00
71907;BME280;59781;52.090;5.030;2023-02-22T07:51:05;101236.97;;;4.65;100.00
71907;BME280;59781;52.090;5.030;2023-02-22T07:53:31;101235.16;;;4.66;100.00
71907;BME280;59781;52.090;5.030;2023-02-22T07:55:59;101242.91;;;4.57;100.00
71907;BME280;59781;52.090;5.030;2023-02-22T07:58:29;101247.03;;;4.73;100.00
71907;BME280;59781;52.090;5.030;2023-02-22T08:00:57;101249.22;;;4.68;100.00
71907;BME280;59781;52.090;5.030;2023-02-22T08:03:24;101243.41;;;4.63;100.00
71907;BME280;59781;52.090;5.030;2023-02-22T08:05:54;101246.19;;;4.50;100.00
71907;BME280;59781;52.090;5.030;2023-02-22T08:08:22;101237.19;;;4.62;100.00
71907;BME280;59781;52.090;5.030;2023-02-22T08:10:50;101236.22;;;4.74;100.00
71907;BME280;59781;52.090;5.030;2023-02-22T08:13:17;101227.03;;;4.56;100.00
71907;BME280;59781;52.090;5.030;2023-02-22T08:15:44;101232.94;;;4.82;100.00
71907;BME280;59781;52.090;5.030;2023-02-22T08:18:14;101235.81;;;4.90;100.00
71907;BME280;59781;52.090;5.030;2023-02-22T08:20:44;101237.16;;;4.96;100.00
71907;BME280;59781;52.090;5.030;2023-02-22T08:23:12;101230.00;;;4.96;100.00
71907;BME280;59781;52.090;5.030;2023-02-22T08:25:39;101236.66;;;5.02;100.00
71907;BME280;59781;52.090;5.030;2023-02-22T08:28:09;101239.22;;;4.92;100.00
71907;BME280;59781;52.090;5.030;2023-02-22T08:30:37;101230.00;;;4.96;100.00
71907;BME280;59781;52.090;5.030;2023-02-22T08:33:05;101223.53;;;4.99;100.00
71907;BME280;59781;52.090;5.030;2023-02-22T08:35:31;101218.09;;;4.89;100.00
71907;BME280;59781;52.090;5.030;2023-02-22T08:38:01;101215.53;;;4.99;100.00
71907;BME280;59781;52.090;5.030;2023-02-22T08:40:35;101214.66;;;5.09;100.00
71907;BME280;59781;52.090;5.030;2023-02-22T08:43:02;101209.56;;;5.06;100.00
71907;BME280;59781;52.090;5.030;2023-02-22T08:45:29;101199.03;;;5.05;100.00
71907;BME280;59781;52.090;5.030;2023-02-22T08:47:55;101196.81;;;5.10;100.00
71907;BME280;59781;52.090;5.030;2023-02-22T08:50:28;101202.31;;;5.29;100.00
71907;BME280;59781;52.090;5.030;2023-02-22T08:52:59;101198.94;;;5.27;100.00
71907;BME280;59781;52.090;5.030;2023-02-22T08:55:31;101191.81;;;5.16;100.00
71907;BME280;59781;52.090;5.030;2023-02-22T08:58:00;101188.66;;;5.23;100.00
71907;BME280;59781;52.090;5.030;2023-02-22T09:00:28;101184.88;;;5.25;100.00
71907;BME280;59781;52.090;5.030;2023-02-22T09:03:01;101186.97;;;5.22;100.00
71907;BME280;59781;52.090;5.030;2023-02-22T09:05:28;101179.78;;;5.22;100.00
71907;BME280;59781;52.090;5.030;2023-02-22T09:07:55;101185.25;;;5.21;100.00
71907;BME280;59781;52.090;5.030;2023-02-22T09:10:23;101173.56;;;5.33;100.00
71907;BME280;59781;52.090;5.030;2023-02-22T09:12:52;101167.81;;;5.37;100.00
71907;BME280;59781;52.090;5.030;2023-02-22T09:15:23;101160.50;;;5.39;100.00
71907;BME280;59781;52.090;5.030;2023-02-22T09:17:50;101160.13;;;5.65;100.00
71907;BME280;59781;52.090;5.030;2023-02-22T09:20:19;101161.53;;;5.69;100.00
71907;BME280;59781;52.090;5.030;2023-02-22T09:22:48;101151.63;;;6.01;100.00
71907;BME280;59781;52.090;5.030;2023-02-22T09:25:15;101153.06;;;5.85;100.00
71907;BME280;59781;52.090;5.030;2023-02-22T09:27:42;101144.84;;;5.76;100.00
71907;BME280;59781;52.090;5.030;2023-02-22T09:30:23;101134.56;;;5.72;100.00
71907;BME280;59781;52.090;5.030;2023-02-22T09:32:54;101142.09;;;5.88;100.00
71907;BME280;59781;52.090;5.030;2023-02-22T09:35:22;101123.47;;;5.76;100.00
71907;BME280;59781;52.090;5.030;2023-02-22T09:37:55;101125.91;;;5.89;100.00
71907;BME280;59781;52.090;5.030;2023-02-22T09:40:25;101126.41;;;5.94;100.00
71907;BME280;59781;52.090;5.030;2023-02-22T09:43:13;101126.09;;;6.28;100.00
71907;BME280;59781;52.090;5.030;2023-02-22T09:49:15;101123.75;;;6.44;100.00
71907;BME280;59781;52.090;5.030;2023-02-22T09:57:00;101128.03;;;6.85;100.00
71907;BME280;59781;52.090;5.030;2023-02-22T09:59:38;101124.78;;;6.63;100.00
71907;BME280;59781;52.090;5.030;2023-02-22T10:02:17;101115.63;;;6.75;100.00
71907;BME280;59781;52.090;5.030;2023-02-22T10:05:28;101125.91;;;6.60;100.00
71907;BME280;59781;52.090;5.030;2023-02-22T10:08:04;101128.31;;;6.73;100.00
71907;BME280;59781;52.090;5.030;2023-02-22T10:10:38;101122.41;;;6.69;100.00
71907;BME280;59781;52.090;5.030;2023-02-22T10:16:40;101127.59;;;6.61;100.00
71907;BME280;59781;52.090;5.030;2023-02-22T10:19:50;101115.09;;;6.81;100.00
71907;BME280;59781;52.090;5.030;2023-02-22T10:22:52;101115.63;;;7.13;100.00
71907;BME280;59781;52.090;5.030;2023-02-22T10:25:30;101120.44;;;7.00;100.00
71907;BME280;59781;52.090;5.030;2023-02-22T10:28:02;101122.28;;;7.19;100.00
71907;BME280;59781;52.090;5.030;2023-02-22T10:30:56;101126.50;;;7.12;100.00
71907;BME280;59781;52.090;5.030;2023-02-22T10:33:38;101125.19;;;7.35;100.00
71907;BME280;59781;52.090;5.030;2023-02-22T10:36:18;101122.78;;;7.42;100.00
71907;BME280;59781;52.090;5.030;2023-02-22T10:41:32;101117.16;;;7.35;100.00
71907;BME280;59781;52.090;5.030;2023-02-22T10:44:01;101104.00;;;7.61;100.00
71907;BME280;59781;52.090;5.030;2023-02-22T10:46:29;101101.22;;;7.43;100.00
71907;BME280;59781;52.090;5.030;2023-02-22T10:49:03;101093.28;;;7.52;100.00
71907;BME280;59781;52.090;5.030;2023-02-22T10:51:33;101105.19;;;7.39;100.00
71907;BME280;59781;52.090;5.030;2023-02-22T10:54:23;101098.69;;;7.42;100.00
71907;BME280;59781;52.090;5.030;2023-02-22T10:56:56;101112.72;;;7.63;100.00
71907;BME280;59781;52.090;5.030;2023-02-22T11:01:54;101108.88;;;7.75;100.00
71907;BME280;59781;52.090;5.030;2023-02-22T11:04:21;101114.03;;;7.96;100.00
71907;BME280;59781;52.090;5.030;2023-02-22T11:07:08;101115.66;;;7.80;100.00
71907;BME280;59781;52.090;5.030;2023-02-22T11:09:46;101106.56;;;7.90;100.00
71907;BME280;59781;52.090;5.030;2023-02-22T11:12:30;101102.38;;;8.43;100.00
71907;BME280;59781;52.090;5.030;2023-02-22T11:14:56;101105.91;;;8.43;100.00
71907;BME280;59781;52.090;5.030;2023-02-22T11:17:49;101104.69;;;8.00;100.00
71907;BME280;59781;52.090;5.030;2023-02-22T11:20:20;101105.50;;;8.11;100.00
71907;BME280;59781;52.090;5.030;2023-02-22T11:22:55;101095.56;;;8.48;100.00
71907;BME280;59781;52.090;5.030;2023-02-22T11:25:32;101095.78;;;8.37;100.00
71907;BME280;59781;52.090;5.030;2023-02-22T11:28:20;101096.72;;;8.18;100.00
71907;BME280;59781;52.090;5.030;2023-02-22T11:30:58;101085.69;;;8.49;100.00
71907;BME280;59781;52.090;5.030;2023-02-22T11:33:36;101085.13;;;8.45;100.00
71907;BME280;59781;52.090;5.030;2023-02-22T11:36:04;101081.84;;;8.87;100.00
71907;BME280;59781;52.090;5.030;2023-02-22T11:38:36;101084.91;;;8.29;100.00
71907;BME280;59781;52.090;5.030;2023-02-22T11:43:33;101074.25;;;7.92;100.00
71907;BME280;59781;52.090;5.030;2023-02-22T11:46:05;101064.44;;;8.28;100.00
71907;BME280;59781;52.090;5.030;2023-02-22T11:48:38;101064.88;;;8.23;100.00
71907;BME280;59781;52.090;5.030;2023-02-22T11:54:18;101062.28;;;8.41;100.00
71907;BME280;59781;52.090;5.030;2023-02-22T11:57:30;101049.56;;;8.79;100.00
71907;BME280;59781;52.090;5.030;2023-02-22T12:00:43;101049.09;;;8.66;100.00
71907;BME280;59781;52.090;5.030;2023-02-22T12:04:01;101045.03;;;8.61;100.00
71907;BME280;59781;52.090;5.030;2023-02-22T12:13:03;101037.66;;;8.81;100.00
71907;BME280;59781;52.090;5.030;2023-02-22T12:16:07;101036.06;;;8.71;100.00
71907;BME280;59781;52.090;5.030;2023-02-22T12:21:39;101028.81;;;8.89;100.00
71907;BME280;59781;52.090;5.030;2023-02-22T12:24:15;101023.53;;;8.79;100.00
71907;BME280;59781;52.090;5.030;2023-02-22T12:26:58;101023.88;;;8.76;100.00
71907;BME280;59781;52.090;5.030;2023-02-22T12:32:13;101018.44;;;8.94;100.00
71907;BME280;59781;52.090;5.030;2023-02-22T12:34:50;101020.22;;;9.29;100.00
71907;BME280;59781;52.090;5.030;2023-02-22T12:45:28;101016.84;;;9.61;98.49
71907;BME280;59781;52.090;5.030;2023-02-22T12:48:14;101019.31;;;9.20;99.35
71907;BME280;59781;52.090;5.030;2023-02-22T13:00:21;101005.66;;;9.40;99.79
71907;BME280;59781;52.090;5.030;2023-02-22T13:03:26;101008.84;;;9.43;100.00
71907;BME280;59781;52.090;5.030;2023-02-22T13:11:31;101008.16;;;9.67;97.66
71907;BME280;59781;52.090;5.030;2023-02-22T13:14:34;101011.72;;;9.42;98.89
71907;BME280;59781;52.090;5.030;2023-02-22T13:23:00;101016.38;;;9.66;99.56
71907;BME280;59781;52.090;5.030;2023-02-22T13:26:07;101017.53;;;9.63;99.25
71907;BME280;59781;52.090;5.030;2023-02-22T13:28:40;101025.66;;;9.37;100.00
71907;BME280;59781;52.090;5.030;2023-02-22T13:37:10;101022.03;;;9.89;99.03
71907;BME280;59781;52.090;5.030;2023-02-22T13:52:28;101021.50;;;10.27;99.82
71907;BME280;59781;52.090;5.030;2023-02-22T13:55:14;101016.34;;;10.42;99.28
71907;BME280;59781;52.090;5.030;2023-02-22T13:57:47;101015.00;;;9.96;99.92
71907;BME280;59781;52.090;5.030;2023-02-22T14:03:06;101026.38;;;9.47;100.00
71907;BME280;59781;52.090;5.030;2023-02-22T14:06:37;101029.28;;;9.54;100.00
71907;BME280;59781;52.090;5.030;2023-02-22T14:09:15;101029.31;;;10.13;100.00
71907;BME280;59781;52.090;5.030;2023-02-22T14:11:46;101035.13;;;9.84;100.00
71907;BME280;59781;52.090;5.030;2023-02-22T14:14:14;101028.28;;;9.97;98.92
71907;BME280;59781;52.090;5.030;2023-02-22T14:16:42;101036.34;;;9.55;100.00
71907;BME280;59781;52.090;5.030;2023-02-22T14:24:43;101037.19;;;9.98;99.83
71907;BME280;59781;52.090;5.030;2023-02-22T14:27:13;101043.09;;;10.01;100.00
71907;BME280;59781;52.090;5.030;2023-02-22T14:29:50;101041.59;;;10.07;98.00
71907;BME280;59781;52.090;5.030;2023-02-22T14:32:19;101039.09;;;10.05;98.25
71907;BME280;59781;52.090;5.030;2023-02-22T14:35:03;101039.50;;;9.85;99.68
71907;BME280;59781;52.090;5.030;2023-02-22T14:37:37;101042.03;;;9.86;100.00
71907;BME280;59781;52.090;5.030;2023-02-22T14:45:42;101047.09;;;9.55;100.00
71907;BME280;59781;52.090;5.030;2023-02-22T14:49:02;101044.47;;;9.71;100.00
71907;BME280;59781;52.090;5.030;2023-02-22T14:51:20;101048.56;;;9.49;100.00
71907;BME280;59781;52.090;5.030;2023-02-22T14:54:08;101038.50;;;9.26;100.00
71907;BME280;59781;52.090;5.030;2023-02-22T14:59:26;101044.50;;;9.80;100.00
71907;BME280;59781;52.090;5.030;2023-02-22T15:02:12;101050.19;;;9.68;100.00
71907;BME280;59781;52.090;5.030;2023-02-22T15:04:39;101038.88;;;9.57;100.00
71907;BME280;59781;52.090;5.030;2023-02-22T15:07:25;101038.25;;;9.71;100.00
71907;BME280;59781;52.090;5.030;2023-02-22T15:10:20;101037.91;;;9.66;100.00
71907;BME280;59781;52.090;5.030;2023-02-22T15:13:01;101044.72;;;9.86;100.00
71907;BME280;59781;52.090;5.030;2023-02-22T15:15:40;101043.47;;;9.72;100.00
71907;BME280;59781;52.090;5.030;2023-02-22T15:18:18;101042.44;;;10.07;100.00
71907;BME280;59781;52.090;5.030;2023-02-22T15:21:04;101043.91;;;9.94;99.80
71907;BME280;59781;52.090;5.030;2023-02-22T15:23:46;101038.41;;;9.69;100.00